createdAt,value
2023-03-23T15:59:05.601Z,3.97
2023-03-23T16:01:32.501Z,3.97
2023-03-23T16:04:02.273Z,3.90
2023-03-23T16:06:31.010Z,4.33
2023-03-23T16:08:57.708Z,4.27
2023-03-23T16:11:25.560Z,4.13
2023-03-23T16:13:52.559Z,3.97
2023-03-23T16:16:23.812Z,4.73
2023-03-23T16:18:50.401Z,5.10
2023-03-23T16:21:17.011Z,4.03
2023-03-23T16:23:46.258Z,4.40
2023-03-23T16:26:14.480Z,4.53
2023-03-23T16:28:41.393Z,4.60
2023-03-23T16:31:08.032Z,4.70
2023-03-23T16:33:34.785Z,5.13
2023-03-23T16:36:01.442Z,6.07
2023-03-23T16:38:28.046Z,6.13
2023-03-23T16:40:54.585Z,6.03
2023-03-23T16:43:21.769Z,6.00
2023-03-23T16:45:48.658Z,5.73
2023-03-23T16:48:16.656Z,4.30
2023-03-23T16:50:44.190Z,5.20
2023-03-23T16:53:11.354Z,4.80
2023-03-23T16:55:38.455Z,5.17
2023-03-23T16:58:16.343Z,4.90
2023-03-23T17:00:45.547Z,4.13
2023-03-23T17:03:13.374Z,3.63
2023-03-23T17:05:41.006Z,3.60
2023-03-23T17:08:07.621Z,3.73
2023-03-23T17:10:34.448Z,3.87
2023-03-23T17:13:01.111Z,4.07
2023-03-23T17:15:27.864Z,3.57
2023-03-23T17:17:55.378Z,3.30
2023-03-23T17:20:22.600Z,3.40
2023-03-23T17:22:49.363Z,3.47
2023-03-23T17:25:16.019Z,3.73
2023-03-23T17:27:43.002Z,3.50
2023-03-23T17:30:10.869Z,4.30
2023-03-23T17:32:38.290Z,3.90
2023-03-23T17:35:05.557Z,4.27
2023-03-23T17:37:32.711Z,4.23
2023-03-23T17:39:59.399Z,4.03
2023-03-23T17:42:26.086Z,4.00
2023-03-23T17:44:52.705Z,4.20
2023-03-23T17:47:19.306Z,4.53
2023-03-23T17:49:46.590Z,3.60
2023-03-23T17:52:13.186Z,4.57
2023-03-23T17:54:39.780Z,4.50
2023-03-23T17:57:06.418Z,4.67
2023-03-23T17:59:33.044Z,4.43
2023-03-23T18:01:59.811Z,4.83
2023-03-23T18:04:29.522Z,4.60
2023-03-23T18:06:56.761Z,4.43
2023-03-23T18:09:23.970Z,5.30
2023-03-23T18:11:50.632Z,4.83
2023-03-23T18:14:17.378Z,4.73
2023-03-23T18:16:44.008Z,4.73
2023-03-23T18:19:10.653Z,5.43
2023-03-23T18:21:37.398Z,4.67
2023-03-23T18:24:03.984Z,4.60
2023-03-23T18:26:30.503Z,4.67
2023-03-23T18:28:57.320Z,5.13
2023-03-23T18:31:24.005Z,5.13
2023-03-23T18:33:51.335Z,4.87
2023-03-23T18:36:19.400Z,5.27
2023-03-23T18:38:46.484Z,4.70
2023-03-23T18:41:13.922Z,4.90
2023-03-23T18:43:40.532Z,4.67
2023-03-23T18:46:07.300Z,5.30
2023-03-23T18:48:33.913Z,4.97
2023-03-23T18:51:01.127Z,5.30
2023-03-23T18:53:27.954Z,5.00
2023-03-23T18:56:03.297Z,4.80
2023-03-23T18:58:30.306Z,4.73
2023-03-23T19:00:57.412Z,4.70
2023-03-23T19:03:24.761Z,4.63
2023-03-23T19:05:51.497Z,5.03
2023-03-23T19:08:18.561Z,4.47
2023-03-23T19:10:45.105Z,5.30
2023-03-23T19:13:11.685Z,5.20
2023-03-23T19:15:41.401Z,5.23
2023-03-23T19:18:08.508Z,5.07
2023-03-23T19:21:06.446Z,5.50
2023-03-23T19:23:23.037Z,5.53
2023-03-23T19:25:50.163Z,8.20
2023-03-23T19:30:47.697Z,5.40
2023-03-23T19:33:15.529Z,5.73
2023-03-23T19:35:44.553Z,6.43
2023-03-23T19:38:11.553Z,7.27
2023-03-23T19:40:42.055Z,6.07
2023-03-23T19:43:09.817Z,5.97
2023-03-23T19:45:37.287Z,5.77
2023-03-23T19:48:04.268Z,4.83
2023-03-23T19:50:33.353Z,5.17
2023-03-23T19:53:00.626Z,5.00
2023-03-23T19:55:27.806Z,5.23
2023-03-23T19:57:55.230Z,5.60
2023-03-23T20:00:24.016Z,4.47
2023-03-23T20:02:51.357Z,4.60
2023-03-23T20:05:18.111Z,4.57
2023-03-23T20:07:48.559Z,4.27
2023-03-23T20:10:18.177Z,4.40
2023-03-23T20:12:44.712Z,6.87
2023-03-23T20:15:11.396Z,4.13
2023-03-23T20:17:38.204Z,5.40
2023-03-23T20:20:10.306Z,4.60
2023-03-23T20:22:37.548Z,4.30
2023-03-23T20:25:04.352Z,3.73
2023-03-23T20:27:32.379Z,4.07
2023-03-23T20:29:59.328Z,3.60
2023-03-23T20:32:26.726Z,3.70
2023-03-23T20:34:53.338Z,5.83
2023-03-23T20:37:20.994Z,11.87
2023-03-23T20:39:48.176Z,5.40
2023-03-23T20:42:15.283Z,3.53
2023-03-23T20:44:41.986Z,3.53
2023-03-23T20:47:09.515Z,3.50
2023-03-23T20:49:37.483Z,3.40
2023-03-23T20:52:05.365Z,2.67
2023-03-23T20:54:31.914Z,2.83
2023-03-23T20:56:58.820Z,3.00
2023-03-23T20:59:25.759Z,2.70
2023-03-23T21:01:52.315Z,2.60
2023-03-23T21:04:22.323Z,2.87
2023-03-23T21:06:49.615Z,3.00
2023-03-23T21:09:17.443Z,2.20
2023-03-23T21:11:44.499Z,2.47
2023-03-23T21:14:11.823Z,2.63
2023-03-23T21:16:38.580Z,2.53
2023-03-23T21:19:05.777Z,1.90
2023-03-23T21:21:32.552Z,2.20
2023-03-23T21:23:59.146Z,2.37
2023-03-23T21:26:28.212Z,2.57
2023-03-23T21:28:54.785Z,2.60
2023-03-23T21:31:23.493Z,2.20
2023-03-23T21:33:50.404Z,2.13
2023-03-23T21:36:17.073Z,2.23
2023-03-23T21:38:44.713Z,2.70
2023-03-23T21:41:13.008Z,2.10
2023-03-23T21:43:40.864Z,2.47
2023-03-23T21:46:08.970Z,2.40
2023-03-23T21:48:38.761Z,2.27
2023-03-23T21:51:09.644Z,2.40
2023-03-23T21:53:37.160Z,2.20
2023-03-23T21:56:05.179Z,2.40
2023-03-23T21:58:31.812Z,2.40
2023-03-23T22:01:01.185Z,2.10
2023-03-23T22:03:32.300Z,2.20
2023-03-23T22:05:59.786Z,2.10
2023-03-23T22:08:27.835Z,2.40
2023-03-23T22:11:02.029Z,2.40
2023-03-23T22:13:32.801Z,2.37
2023-03-23T22:16:00.958Z,2.47
2023-03-23T22:18:27.914Z,2.30
2023-03-23T22:20:54.484Z,2.67
2023-03-23T22:23:21.281Z,2.60
2023-03-23T22:25:47.890Z,2.50
2023-03-23T22:28:15.367Z,2.10
2023-03-23T22:30:41.924Z,2.67
2023-03-23T22:33:08.571Z,2.67
2023-03-23T22:35:35.339Z,2.33
2023-03-23T22:38:03.270Z,2.43
2023-03-23T22:40:31.127Z,2.90
2023-03-23T22:42:57.876Z,2.03
2023-03-23T22:45:26.089Z,2.30
2023-03-23T22:47:52.884Z,2.33
2023-03-23T22:50:21.550Z,2.20
2023-03-23T22:52:48.334Z,2.00
2023-03-23T22:55:14.928Z,2.10
2023-03-23T22:57:41.762Z,2.43
2023-03-23T23:00:14.582Z,2.40
2023-03-23T23:02:44.621Z,2.60
2023-03-23T23:05:12.448Z,2.27
2023-03-23T23:07:39.501Z,2.03
2023-03-23T23:10:06.908Z,2.33
2023-03-23T23:12:35.334Z,2.60
2023-03-23T23:15:03.764Z,2.57
2023-03-23T23:17:32.585Z,2.30
2023-03-23T23:19:59.875Z,1.87
2023-03-23T23:22:26.696Z,2.13
2023-03-23T23:24:53.326Z,2.43
2023-03-23T23:27:20.090Z,1.70
2023-03-23T23:29:47.179Z,2.30
2023-03-23T23:32:13.810Z,1.93
2023-03-23T23:34:40.429Z,1.93
2023-03-23T23:37:09.082Z,2.30
2023-03-23T23:39:38.424Z,2.20
2023-03-23T23:42:05.602Z,1.60
2023-03-23T23:44:32.243Z,2.00
2023-03-23T23:46:58.859Z,2.33
2023-03-23T23:49:27.743Z,1.90
2023-03-23T23:51:54.663Z,2.20
2023-03-23T23:54:23.064Z,2.30
2023-03-23T23:56:50.916Z,2.00
2023-03-23T23:59:17.832Z,2.10
